PWSweather.com
Personal Weather Stations
Station Observations
KOMOKA2
Middlesex Centre, Komoka, ON N0L 1R0

Middlesex CentreKomoka, ON N0L 1R0

Lat: 42.9542444, Lon: -81.4348861

Elevation: 805

Station Type: Davis VP2 w/ Vue Console

High Low Average
Temperature 75.5°F24.2°C 60.5°F15.8°C 69.2°F20.7°C
Dew Point 59.0°F15.0°C 46.0°F7.8°C 53.1°F11.7°C
Winds 7.3 mph 11.7 kmh Calm Calm 4.0 mph NW6.4 kmh NW
Wind Gusts 19.0 mph30.6 kmh -- 10.0 mph16.1 kmh
Humidity 68% 43% 57%
Pressure 29.89 in1012.2 mb 29.75 in1007.5 mb -
Precipitation 0.05 in1.3 mm - -
Hour Temp Dew Point Humidity Winds Wind Gusts Pressure Precip Precip Rate Daily Precip Total
12:00 AM 74.7°F23.7°C 55.0°F12.8°C 50% 1.2 mph S1.9 kmh S 4.0 mph6.4 kmh 29.79 in1008.8 mb 0.00 in0.0 mm 0.00 in0.0 mm 0.00 in0.0 mm
12:05 AM 74.8°F23.8°C 55.0°F12.8°C 50% 1.6 mph SW2.6 kmh SW 4.0 mph6.4 kmh 29.79 in1008.8 mb 0.00 in0.0 mm 0.00 in0.0 mm 0.00 in0.0 mm
12:10 AM 74.9°F23.8°C 54.0°F12.2°C 49% 1.9 mph S3.1 kmh S 6.0 mph9.7 kmh 29.79 in1008.8 mb 0.00 in0.0 mm 0.00 in0.0 mm 0.00 in0.0 mm
12:15 AM 75.1°F23.9°C 55.0°F12.8°C 49% 2.1 mph SSW3.4 kmh SSW 6.0 mph9.7 kmh 29.79 in1008.8 mb 0.00 in0.0 mm 0.00 in0.0 mm 0.00 in0.0 mm
12:20 AM 75.4°F24.1°C 54.0°F12.2°C 48% 2.4 mph SSW3.9 kmh SSW 8.0 mph12.9 kmh 29.79 in1008.8 mb 0.00 in0.0 mm 0.00 in0.0 mm 0.00 in0.0 mm
12:25 AM 75.4°F24.1°C 54.0°F12.2°C 48% 2.3 mph SSW3.7 kmh SSW 8.0 mph12.9 kmh 29.79 in1008.8 mb 0.00 in0.0 mm 0.00 in0.0 mm 0.00 in0.0 mm
12:30 AM 75.5°F24.2°C 54.0°F12.2°C 48% 2.1 mph SW3.4 kmh SW 6.0 mph9.7 kmh 29.79 in1008.8 mb 0.00 in0.0 mm 0.00 in0.0 mm 0.00 in0.0 mm
12:35 AM 75.4°F24.1°C 54.0°F12.2°C 48% 2.1 mph SSW3.4 kmh SSW 10.0 mph16.1 kmh 29.79 in1008.8 mb 0.00 in0.0 mm 0.00 in0.0 mm 0.00 in0.0 mm
12:40 AM 75.3°F24.1°C 55.0°F12.8°C 49% 2.0 mph SW3.2 kmh SW 10.0 mph16.1 kmh 29.79 in1008.8 mb 0.00 in0.0 mm 0.00 in0.0 mm 0.00 in0.0 mm
12:45 AM 74.9°F23.8°C 55.0°F12.8°C 50% 2.3 mph S3.7 kmh S 10.0 mph16.1 kmh 29.80 in1009.1 mb 0.00 in0.0 mm 0.00 in0.0 mm 0.00 in0.0 mm
12:50 AM 74.5°F23.6°C 55.0°F12.8°C 51% 3.1 mph WSW5.0 kmh WSW 10.0 mph16.1 kmh 29.80 in1009.1 mb 0.00 in0.0 mm 0.00 in0.0 mm 0.00 in0.0 mm
12:55 AM 74.1°F23.4°C 55.0°F12.8°C 52% 3.8 mph SW6.1 kmh SW 11.0 mph17.7 kmh 29.79 in1008.8 mb 0.00 in0.0 mm 0.00 in0.0 mm 0.00 in0.0 mm
01:00 AM 73.5°F23.1°C 55.0°F12.8°C 53% 3.2 mph S5.1 kmh S 9.0 mph14.5 kmh 29.79 in1008.8 mb 0.00 in0.0 mm 0.00 in0.0 mm 0.00 in0.0 mm
01:05 AM 73.2°F22.9°C 55.0°F12.8°C 54% 2.9 mph S4.7 kmh S 10.0 mph16.1 kmh 29.79 in1008.8 mb 0.00 in0.0 mm 0.00 in0.0 mm 0.00 in0.0 mm
01:10 AM 72.9°F22.7°C 55.0°F12.8°C 54% 3.1 mph SSW5.0 kmh SSW 10.0 mph16.1 kmh 29.79 in1008.8 mb 0.00 in0.0 mm 0.00 in0.0 mm 0.00 in0.0 mm
01:15 AM 72.8°F22.7°C 56.0°F13.3°C 55% 2.5 mph SSW4.0 kmh SSW 6.0 mph9.7 kmh 29.78 in1008.5 mb 0.00 in0.0 mm 0.00 in0.0 mm 0.00 in0.0 mm
01:20 AM 72.6°F22.6°C 55.0°F12.8°C 55% 1.6 mph SW2.6 kmh SW 6.0 mph9.7 kmh 29.77 in1008.1 mb 0.00 in0.0 mm 0.00 in0.0 mm 0.00 in0.0 mm
01:25 AM 72.5°F22.5°C 55.0°F12.8°C 55% 1.4 mph S2.3 kmh S 8.0 mph12.9 kmh 29.77 in1008.1 mb 0.00 in0.0 mm 0.00 in0.0 mm 0.00 in0.0 mm
01:30 AM 72.5°F22.5°C 55.0°F12.8°C 55% 1.5 mph SW2.4 kmh SW 8.0 mph12.9 kmh 29.77 in1008.1 mb 0.00 in0.0 mm 0.00 in0.0 mm 0.00 in0.0 mm
01:35 AM 72.4°F22.4°C 56.0°F13.3°C 56% 0.8 mph SW1.3 kmh SW 3.0 mph4.8 kmh 29.77 in1008.1 mb 0.00 in0.0 mm 0.00 in0.0 mm 0.00 in0.0 mm
01:40 AM 72.3°F22.4°C 56.0°F13.3°C 56% 0.4 mph SW0.6 kmh SW 3.0 mph4.8 kmh 29.77 in1008.1 mb 0.00 in0.0 mm 0.00 in0.0 mm 0.00 in0.0 mm
01:45 AM 72.2°F22.3°C 55.0°F12.8°C 56% 0.7 mph SW1.1 kmh SW 3.0 mph4.8 kmh 29.77 in1008.1 mb 0.00 in0.0 mm 0.00 in0.0 mm 0.00 in0.0 mm
01:50 AM 72.2°F22.3°C 55.0°F12.8°C 56% 0.5 mph WSW0.8 kmh WSW 3.0 mph4.8 kmh 29.77 in1008.1 mb 0.00 in0.0 mm 0.00 in0.0 mm 0.00 in0.0 mm
01:55 AM 72.0°F22.2°C 56.0°F13.3°C 57% Calm Calm -- 29.77 in1008.1 mb 0.00 in0.0 mm 0.00 in0.0 mm 0.00 in0.0 mm
02:00 AM 71.7°F22.1°C 55.0°F12.8°C 57% Calm Calm -- 29.77 in1008.1 mb 0.00 in0.0 mm 0.00 in0.0 mm 0.00 in0.0 mm
02:05 AM 71.4°F21.9°C 56.0°F13.3°C 58% Calm Calm -- 29.77 in1008.1 mb 0.00 in0.0 mm 0.00 in0.0 mm 0.00 in0.0 mm
02:10 AM 71.5°F21.9°C 56.0°F13.3°C 58% 0.4 mph N0.6 kmh N 3.0 mph4.8 kmh 29.76 in1007.8 mb 0.00 in0.0 mm 0.00 in0.0 mm 0.00 in0.0 mm
02:15 AM 71.5°F21.9°C 56.0°F13.3°C 58% 0.9 mph N1.4 kmh N 4.0 mph6.4 kmh 29.76 in1007.8 mb 0.00 in0.0 mm 0.00 in0.0 mm 0.00 in0.0 mm
02:20 AM 71.5°F21.9°C 56.0°F13.3°C 58% 1.0 mph N1.6 kmh N 4.0 mph6.4 kmh 29.76 in1007.8 mb 0.00 in0.0 mm 0.00 in0.0 mm 0.00 in0.0 mm
02:25 AM 71.8°F22.1°C 56.0°F13.3°C 57% 1.2 mph N1.9 kmh N 4.0 mph6.4 kmh 29.76 in1007.8 mb 0.00 in0.0 mm 0.00 in0.0 mm 0.00 in0.0 mm
02:30 AM 72.0°F22.2°C 56.0°F13.3°C 57% 1.4 mph S2.3 kmh S 5.0 mph8.0 kmh 29.76 in1007.8 mb 0.00 in0.0 mm 0.00 in0.0 mm 0.00 in0.0 mm
02:35 AM 72.1°F22.3°C 56.0°F13.3°C 57% 1.5 mph S2.4 kmh S 5.0 mph8.0 kmh 29.76 in1007.8 mb 0.00 in0.0 mm 0.00 in0.0 mm 0.00 in0.0 mm
02:40 AM 72.3°F22.4°C 56.0°F13.3°C 57% 1.9 mph S3.1 kmh S 5.0 mph8.0 kmh 29.76 in1007.8 mb 0.00 in0.0 mm 0.00 in0.0 mm 0.00 in0.0 mm
02:45 AM 72.4°F22.4°C 56.0°F13.3°C 56% 2.1 mph S3.4 kmh S 8.0 mph12.9 kmh 29.75 in1007.5 mb 0.00 in0.0 mm 0.00 in0.0 mm 0.00 in0.0 mm
02:50 AM 72.4°F22.4°C 56.0°F13.3°C 56% 2.4 mph SW3.9 kmh SW 9.0 mph14.5 kmh 29.76 in1007.8 mb 0.00 in0.0 mm 0.00 in0.0 mm 0.00 in0.0 mm
02:55 AM 72.4°F22.4°C 56.0°F13.3°C 57% 2.3 mph SW3.7 kmh SW 8.0 mph12.9 kmh 29.75 in1007.5 mb 0.00 in0.0 mm 0.00 in0.0 mm 0.00 in0.0 mm
03:00 AM 72.4°F22.4°C 56.0°F13.3°C 57% 2.0 mph N3.2 kmh N 9.0 mph14.5 kmh 29.76 in1007.8 mb 0.00 in0.0 mm 0.00 in0.0 mm 0.00 in0.0 mm
03:05 AM 72.5°F22.5°C 56.0°F13.3°C 57% 2.1 mph N3.4 kmh N 9.0 mph14.5 kmh 29.76 in1007.8 mb 0.00 in0.0 mm 0.00 in0.0 mm 0.00 in0.0 mm
03:10 AM 72.4°F22.4°C 56.0°F13.3°C 57% 1.7 mph SSW2.7 kmh SSW 7.0 mph11.3 kmh 29.75 in1007.5 mb 0.00 in0.0 mm 0.00 in0.0 mm 0.00 in0.0 mm
03:15 AM 72.4°F22.4°C 56.0°F13.3°C 57% 1.9 mph WSW3.1 kmh WSW 8.0 mph12.9 kmh 29.76 in1007.8 mb 0.00 in0.0 mm 0.00 in0.0 mm 0.00 in0.0 mm
03:20 AM 72.5°F22.5°C 56.0°F13.3°C 57% 2.4 mph SSW3.9 kmh SSW 8.0 mph12.9 kmh 29.75 in1007.5 mb 0.00 in0.0 mm 0.00 in0.0 mm 0.00 in0.0 mm
03:25 AM 72.4°F22.4°C 57.0°F13.9°C 58% 2.5 mph WSW4.0 kmh WSW 9.0 mph14.5 kmh 29.75 in1007.5 mb 0.00 in0.0 mm 0.00 in0.0 mm 0.00 in0.0 mm
03:30 AM 72.4°F22.4°C 57.0°F13.9°C 58% 2.6 mph SW4.2 kmh SW 9.0 mph14.5 kmh 29.75 in1007.5 mb 0.00 in0.0 mm 0.00 in0.0 mm 0.00 in0.0 mm
03:35 AM 72.4°F22.4°C 57.0°F13.9°C 58% 2.9 mph N4.7 kmh N 9.0 mph14.5 kmh 29.75 in1007.5 mb 0.00 in0.0 mm 0.00 in0.0 mm 0.00 in0.0 mm
03:40 AM 72.5°F22.5°C 57.0°F13.9°C 59% 3.2 mph SW5.1 kmh SW 9.0 mph14.5 kmh 29.76 in1007.8 mb 0.00 in0.0 mm 0.00 in0.0 mm 0.00 in0.0 mm
03:45 AM 72.5°F22.5°C 57.0°F13.9°C 59% 3.3 mph W5.3 kmh W 9.0 mph14.5 kmh 29.76 in1007.8 mb 0.00 in0.0 mm 0.00 in0.0 mm 0.00 in0.0 mm
03:50 AM 72.4°F22.4°C 57.0°F13.9°C 59% 3.3 mph SW5.3 kmh SW 9.0 mph14.5 kmh 29.76 in1007.8 mb 0.00 in0.0 mm 0.00 in0.0 mm 0.00 in0.0 mm
03:55 AM 72.2°F22.3°C 57.0°F13.9°C 59% 2.6 mph SW4.2 kmh SW 8.0 mph12.9 kmh 29.75 in1007.5 mb 0.00 in0.0 mm 0.00 in0.0 mm 0.00 in0.0 mm
04:00 AM 72.3°F22.4°C 58.0°F14.4°C 60% 2.9 mph N4.7 kmh N 9.0 mph14.5 kmh 29.75 in1007.5 mb 0.00 in0.0 mm 0.00 in0.0 mm 0.00 in0.0 mm
04:05 AM 72.4°F22.4°C 58.0°F14.4°C 60% 3.9 mph N6.3 kmh N 11.0 mph17.7 kmh 29.75 in1007.5 mb 0.00 in0.0 mm 0.00 in0.0 mm 0.00 in0.0 mm
04:10 AM 72.4°F22.4°C 58.0°F14.4°C 60% 3.9 mph SSW6.3 kmh SSW 11.0 mph17.7 kmh 29.76 in1007.8 mb 0.00 in0.0 mm 0.00 in0.0 mm 0.00 in0.0 mm
04:15 AM 72.2°F22.3°C 58.0°F14.4°C 61% 3.4 mph SSW5.5 kmh SSW 11.0 mph17.7 kmh 29.75 in1007.5 mb 0.00 in0.0 mm 0.00 in0.0 mm 0.00 in0.0 mm
04:20 AM 72.2°F22.3°C 58.0°F14.4°C 61% 3.1 mph N5.0 kmh N 7.0 mph11.3 kmh 29.75 in1007.5 mb 0.00 in0.0 mm 0.00 in0.0 mm 0.00 in0.0 mm
04:25 AM 72.2°F22.3°C 58.0°F14.4°C 61% 3.4 mph N5.5 kmh N 13.0 mph20.9 kmh 29.75 in1007.5 mb 0.00 in0.0 mm 0.00 in0.0 mm 0.00 in0.0 mm
04:30 AM 72.3°F22.4°C 58.0°F14.4°C 61% 3.8 mph N6.1 kmh N 13.0 mph20.9 kmh 29.75 in1007.5 mb 0.00 in0.0 mm 0.00 in0.0 mm 0.00 in0.0 mm
04:35 AM 72.2°F22.3°C 58.0°F14.4°C 61% 4.3 mph SW6.9 kmh SW 11.0 mph17.7 kmh 29.75 in1007.5 mb 0.00 in0.0 mm 0.00 in0.0 mm 0.00 in0.0 mm
04:40 AM 72.2°F22.3°C 58.0°F14.4°C 62% 4.7 mph N7.6 kmh N 11.0 mph17.7 kmh 29.75 in1007.5 mb 0.00 in0.0 mm 0.00 in0.0 mm 0.00 in0.0 mm
04:45 AM 72.1°F22.3°C 58.0°F14.4°C 62% 4.6 mph SSW7.4 kmh SSW 10.0 mph16.1 kmh 29.75 in1007.5 mb 0.00 in0.0 mm 0.00 in0.0 mm 0.00 in0.0 mm
04:50 AM 72.1°F22.3°C 58.0°F14.4°C 62% 3.9 mph N6.3 kmh N 10.0 mph16.1 kmh 29.75 in1007.5 mb 0.00 in0.0 mm 0.00 in0.0 mm 0.00 in0.0 mm
04:55 AM 72.0°F22.2°C 58.0°F14.4°C 62% 4.1 mph N6.6 kmh N 11.0 mph17.7 kmh 29.76 in1007.8 mb 0.00 in0.0 mm 0.00 in0.0 mm 0.00 in0.0 mm
05:00 AM 71.9°F22.2°C 59.0°F15.0°C 63% 4.6 mph SW7.4 kmh SW 11.0 mph17.7 kmh 29.76 in1007.8 mb 0.00 in0.0 mm 0.00 in0.0 mm 0.00 in0.0 mm
05:05 AM 71.8°F22.1°C 58.0°F14.4°C 63% 5.0 mph N8.0 kmh N 10.0 mph16.1 kmh 29.76 in1007.8 mb 0.00 in0.0 mm 0.00 in0.0 mm 0.00 in0.0 mm
05:10 AM 71.6°F22.0°C 58.0°F14.4°C 63% 4.9 mph SW7.9 kmh SW 10.0 mph16.1 kmh 29.76 in1007.8 mb 0.00 in0.0 mm 0.00 in0.0 mm 0.00 in0.0 mm
05:15 AM 71.4°F21.9°C 58.0°F14.4°C 63% 3.8 mph SSW6.1 kmh SSW 11.0 mph17.7 kmh 29.76 in1007.8 mb 0.00 in0.0 mm 0.00 in0.0 mm 0.00 in0.0 mm
05:20 AM 71.2°F21.8°C 58.0°F14.4°C 64% 4.8 mph SW7.7 kmh SW 13.0 mph20.9 kmh 29.76 in1007.8 mb 0.00 in0.0 mm 0.00 in0.0 mm 0.00 in0.0 mm
05:25 AM 71.0°F21.7°C 58.0°F14.4°C 64% 4.8 mph N7.7 kmh N 13.0 mph20.9 kmh 29.76 in1007.8 mb 0.00 in0.0 mm 0.00 in0.0 mm 0.00 in0.0 mm
05:30 AM 70.7°F21.5°C 58.0°F14.4°C 65% 3.2 mph WSW5.1 kmh WSW 7.0 mph11.3 kmh 29.77 in1008.1 mb 0.00 in0.0 mm 0.00 in0.0 mm 0.00 in0.0 mm
05:35 AM 70.5°F21.4°C 58.0°F14.4°C 65% 2.7 mph SW4.3 kmh SW 6.0 mph9.7 kmh 29.77 in1008.1 mb 0.00 in0.0 mm 0.00 in0.0 mm 0.00 in0.0 mm
05:40 AM 70.4°F21.3°C 58.0°F14.4°C 66% 2.7 mph N4.3 kmh N 8.0 mph12.9 kmh 29.77 in1008.1 mb 0.00 in0.0 mm 0.00 in0.0 mm 0.00 in0.0 mm
05:45 AM 70.3°F21.3°C 58.0°F14.4°C 66% 3.3 mph SW5.3 kmh SW 8.0 mph12.9 kmh 29.77 in1008.1 mb 0.00 in0.0 mm 0.00 in0.0 mm 0.00 in0.0 mm
05:50 AM 70.2°F21.2°C 58.0°F14.4°C 66% 3.2 mph SW5.1 kmh SW 7.0 mph11.3 kmh 29.77 in1008.1 mb 0.00 in0.0 mm 0.00 in0.0 mm 0.00 in0.0 mm
05:55 AM 70.1°F21.2°C 58.0°F14.4°C 66% 3.1 mph N5.0 kmh N 7.0 mph11.3 kmh 29.77 in1008.1 mb 0.00 in0.0 mm 0.00 in0.0 mm 0.00 in0.0 mm
06:00 AM 70.0°F21.1°C 58.0°F14.4°C 66% 3.2 mph N5.1 kmh N 7.0 mph11.3 kmh 29.77 in1008.1 mb 0.00 in0.0 mm 0.00 in0.0 mm 0.00 in0.0 mm
06:05 AM 69.9°F21.1°C 58.0°F14.4°C 66% 2.7 mph N4.3 kmh N 7.0 mph11.3 kmh 29.77 in1008.1 mb 0.00 in0.0 mm 0.00 in0.0 mm 0.00 in0.0 mm
06:10 AM 69.8°F21.0°C 58.0°F14.4°C 66% 2.3 mph SW3.7 kmh SW 7.0 mph11.3 kmh 29.77 in1008.1 mb 0.00 in0.0 mm 0.00 in0.0 mm 0.00 in0.0 mm
06:15 AM 69.7°F20.9°C 58.0°F14.4°C 66% 2.7 mph SW4.3 kmh SW 6.0 mph9.7 kmh 29.77 in1008.1 mb 0.00 in0.0 mm 0.00 in0.0 mm 0.00 in0.0 mm
06:20 AM 69.5°F20.8°C 58.0°F14.4°C 66% 3.5 mph WSW5.6 kmh WSW 8.0 mph12.9 kmh 29.77 in1008.1 mb 0.00 in0.0 mm 0.00 in0.0 mm 0.00 in0.0 mm
06:25 AM 69.5°F20.8°C 58.0°F14.4°C 67% 3.6 mph N5.8 kmh N 8.0 mph12.9 kmh 29.77 in1008.1 mb 0.00 in0.0 mm 0.00 in0.0 mm 0.00 in0.0 mm
06:30 AM 69.5°F20.8°C 58.0°F14.4°C 67% 2.8 mph N4.5 kmh N 7.0 mph11.3 kmh 29.77 in1008.1 mb 0.00 in0.0 mm 0.00 in0.0 mm 0.00 in0.0 mm
06:35 AM 69.3°F20.7°C 58.0°F14.4°C 67% 2.5 mph N4.0 kmh N 8.0 mph12.9 kmh 29.77 in1008.1 mb 0.00 in0.0 mm 0.00 in0.0 mm 0.00 in0.0 mm
06:40 AM 69.2°F20.7°C 58.0°F14.4°C 67% 2.7 mph N4.3 kmh N 8.0 mph12.9 kmh 29.77 in1008.1 mb 0.00 in0.0 mm 0.00 in0.0 mm 0.00 in0.0 mm
06:45 AM 69.1°F20.6°C 58.0°F14.4°C 67% 2.4 mph N3.9 kmh N 7.0 mph11.3 kmh 29.77 in1008.1 mb 0.00 in0.0 mm 0.00 in0.0 mm 0.00 in0.0 mm
06:50 AM 69.0°F20.6°C 58.0°F14.4°C 68% 2.3 mph N3.7 kmh N 7.0 mph11.3 kmh 29.77 in1008.1 mb 0.00 in0.0 mm 0.00 in0.0 mm 0.00 in0.0 mm
06:55 AM 69.1°F20.6°C 58.0°F14.4°C 68% 2.6 mph N4.2 kmh N 8.0 mph12.9 kmh 29.78 in1008.5 mb 0.00 in0.0 mm 0.00 in0.0 mm 0.00 in0.0 mm
07:00 AM 69.2°F20.7°C 58.0°F14.4°C 67% 2.3 mph N3.7 kmh N 8.0 mph12.9 kmh 29.77 in1008.1 mb 0.00 in0.0 mm 0.00 in0.0 mm 0.00 in0.0 mm
07:05 AM 69.2°F20.7°C 58.0°F14.4°C 67% 2.6 mph N4.2 kmh N 8.0 mph12.9 kmh 29.78 in1008.5 mb 0.00 in0.0 mm 0.00 in0.0 mm 0.00 in0.0 mm
07:10 AM 69.1°F20.6°C 58.0°F14.4°C 67% 3.9 mph N6.3 kmh N 11.0 mph17.7 kmh 29.78 in1008.5 mb 0.00 in0.0 mm 0.00 in0.0 mm 0.00 in0.0 mm
07:15 AM 69.1°F20.6°C 58.0°F14.4°C 67% 4.2 mph N6.8 kmh N 12.0 mph19.3 kmh 29.78 in1008.5 mb 0.00 in0.0 mm 0.00 in0.0 mm 0.00 in0.0 mm
07:20 AM 69.2°F20.7°C 58.0°F14.4°C 67% 3.4 mph N5.5 kmh N 12.0 mph19.3 kmh 29.77 in1008.1 mb 0.00 in0.0 mm 0.00 in0.0 mm 0.00 in0.0 mm
07:25 AM 69.2°F20.7°C 58.0°F14.4°C 67% 3.3 mph N5.3 kmh N 12.0 mph19.3 kmh 29.78 in1008.5 mb 0.00 in0.0 mm 0.00 in0.0 mm 0.00 in0.0 mm
07:30 AM 69.1°F20.6°C 58.0°F14.4°C 67% 4.0 mph N6.4 kmh N 12.0 mph19.3 kmh 29.78 in1008.5 mb 0.00 in0.0 mm 0.00 in0.0 mm 0.01 in0.3 mm
07:35 AM 69.1°F20.6°C 58.0°F14.4°C 67% 3.9 mph N6.3 kmh N 10.0 mph16.1 kmh 29.78 in1008.5 mb 0.00 in0.0 mm 0.00 in0.0 mm 0.01 in0.3 mm
07:40 AM 69.1°F20.6°C 58.0°F14.4°C 67% 2.9 mph N4.7 kmh N 7.0 mph11.3 kmh 29.78 in1008.5 mb 0.00 in0.0 mm 0.00 in0.0 mm 0.01 in0.3 mm
07:45 AM 69.1°F20.6°C 58.0°F14.4°C 67% 2.6 mph N4.2 kmh N 7.0 mph11.3 kmh 29.78 in1008.5 mb 0.00 in0.0 mm 0.00 in0.0 mm 0.01 in0.3 mm
07:50 AM 69.2°F20.7°C 58.0°F14.4°C 67% 2.4 mph N3.9 kmh N 7.0 mph11.3 kmh 29.78 in1008.5 mb 0.00 in0.0 mm 0.00 in0.0 mm 0.01 in0.3 mm
07:55 AM 69.4°F20.8°C 58.0°F14.4°C 67% 1.9 mph SW3.1 kmh SW 6.0 mph9.7 kmh 29.78 in1008.5 mb 0.00 in0.0 mm 0.00 in0.0 mm 0.01 in0.3 mm
08:00 AM 69.4°F20.8°C 58.0°F14.4°C 67% 3.0 mph SW4.8 kmh SW 9.0 mph14.5 kmh 29.79 in1008.8 mb 0.00 in0.0 mm 0.00 in0.0 mm 0.01 in0.3 mm
08:05 AM 69.4°F20.8°C 58.0°F14.4°C 67% 3.5 mph WSW5.6 kmh WSW 9.0 mph14.5 kmh 29.79 in1008.8 mb 0.00 in0.0 mm 0.00 in0.0 mm 0.01 in0.3 mm
08:10 AM 69.5°F20.8°C 58.0°F14.4°C 67% 2.7 mph NW4.3 kmh NW 8.0 mph12.9 kmh 29.79 in1008.8 mb 0.00 in0.0 mm 0.00 in0.0 mm 0.01 in0.3 mm
08:15 AM 69.0°F20.6°C 57.0°F13.9°C 66% 2.9 mph WNW4.7 kmh WNW 8.0 mph12.9 kmh 29.79 in1008.8 mb 0.00 in0.0 mm 0.00 in0.0 mm 0.01 in0.3 mm
08:20 AM 68.9°F20.5°C 57.0°F13.9°C 66% 2.6 mph W4.2 kmh W 7.0 mph11.3 kmh 29.79 in1008.8 mb 0.00 in0.0 mm 0.00 in0.0 mm 0.01 in0.3 mm
08:25 AM 68.8°F20.4°C 57.0°F13.9°C 66% 2.3 mph W3.7 kmh W 7.0 mph11.3 kmh 29.80 in1009.1 mb 0.00 in0.0 mm 0.00 in0.0 mm 0.01 in0.3 mm
08:30 AM 68.6°F20.3°C 56.0°F13.3°C 65% 2.9 mph N4.7 kmh N 7.0 mph11.3 kmh 29.80 in1009.1 mb 0.00 in0.0 mm 0.00 in0.0 mm 0.01 in0.3 mm
08:35 AM 68.4°F20.2°C 56.0°F13.3°C 65% 2.5 mph N4.0 kmh N 7.0 mph11.3 kmh 29.80 in1009.1 mb 0.00 in0.0 mm 0.00 in0.0 mm 0.01 in0.3 mm
08:40 AM 68.4°F20.2°C 56.0°F13.3°C 65% 2.3 mph W3.7 kmh W 6.0 mph9.7 kmh 29.80 in1009.1 mb 0.00 in0.0 mm 0.00 in0.0 mm 0.01 in0.3 mm
08:45 AM 68.3°F20.2°C 56.0°F13.3°C 65% 2.6 mph W4.2 kmh W 7.0 mph11.3 kmh 29.80 in1009.1 mb 0.00 in0.0 mm 0.00 in0.0 mm 0.01 in0.3 mm
08:50 AM 68.5°F20.3°C 56.0°F13.3°C 65% 2.7 mph N4.3 kmh N 7.0 mph11.3 kmh 29.80 in1009.1 mb 0.00 in0.0 mm 0.00 in0.0 mm 0.01 in0.3 mm
08:55 AM 68.8°F20.4°C 56.0°F13.3°C 64% 2.7 mph NW4.3 kmh NW 6.0 mph9.7 kmh 29.80 in1009.1 mb 0.00 in0.0 mm 0.00 in0.0 mm 0.01 in0.3 mm
09:00 AM 69.1°F20.6°C 56.0°F13.3°C 64% 2.9 mph SW4.7 kmh SW 7.0 mph11.3 kmh 29.80 in1009.1 mb 0.00 in0.0 mm 0.00 in0.0 mm 0.01 in0.3 mm
09:05 AM 69.4°F20.8°C 56.0°F13.3°C 63% 3.6 mph W5.8 kmh W 9.0 mph14.5 kmh 29.80 in1009.1 mb 0.00 in0.0 mm 0.00 in0.0 mm 0.01 in0.3 mm
09:10 AM 69.5°F20.8°C 56.0°F13.3°C 62% 4.1 mph W6.6 kmh W 9.0 mph14.5 kmh 29.80 in1009.1 mb 0.00 in0.0 mm 0.00 in0.0 mm 0.01 in0.3 mm
09:15 AM 69.4°F20.8°C 56.0°F13.3°C 62% 3.6 mph SW5.8 kmh SW 9.0 mph14.5 kmh 29.80 in1009.1 mb 0.00 in0.0 mm 0.00 in0.0 mm 0.01 in0.3 mm
09:20 AM 69.3°F20.7°C 56.0°F13.3°C 62% 3.1 mph WNW5.0 kmh WNW 8.0 mph12.9 kmh 29.81 in1009.5 mb 0.00 in0.0 mm 0.00 in0.0 mm 0.01 in0.3 mm
09:25 AM 69.5°F20.8°C 55.0°F12.8°C 61% 2.9 mph W4.7 kmh W 8.0 mph12.9 kmh 29.81 in1009.5 mb 0.00 in0.0 mm 0.00 in0.0 mm 0.01 in0.3 mm
09:30 AM 69.5°F20.8°C 55.0°F12.8°C 61% 2.7 mph NW4.3 kmh NW 8.0 mph12.9 kmh 29.80 in1009.1 mb 0.00 in0.0 mm 0.00 in0.0 mm 0.01 in0.3 mm
09:35 AM 69.5°F20.8°C 55.0°F12.8°C 61% 3.0 mph W4.8 kmh W 7.0 mph11.3 kmh 29.80 in1009.1 mb 0.00 in0.0 mm 0.00 in0.0 mm 0.01 in0.3 mm
09:40 AM 70.0°F21.1°C 56.0°F13.3°C 61% 3.2 mph S5.1 kmh S 7.0 mph11.3 kmh 29.80 in1009.1 mb 0.00 in0.0 mm 0.00 in0.0 mm 0.01 in0.3 mm
09:45 AM 71.4°F21.9°C 56.0°F13.3°C 59% 3.0 mph W4.8 kmh W 7.0 mph11.3 kmh 29.80 in1009.1 mb 0.00 in0.0 mm 0.00 in0.0 mm 0.01 in0.3 mm
09:50 AM 71.0°F21.7°C 56.0°F13.3°C 59% 3.7 mph NW6.0 kmh NW 8.0 mph12.9 kmh 29.80 in1009.1 mb 0.00 in0.0 mm 0.00 in0.0 mm 0.01 in0.3 mm
10:00 AM 70.8°F21.6°C 56.0°F13.3°C 60% 2.3 mph SW3.7 kmh SW 5.0 mph8.0 kmh 29.80 in1009.1 mb 0.00 in0.0 mm 0.00 in0.0 mm 0.01 in0.3 mm
10:05 AM 70.6°F21.4°C 56.0°F13.3°C 61% 2.4 mph WNW3.9 kmh WNW 6.0 mph9.7 kmh 29.80 in1009.1 mb 0.00 in0.0 mm 0.00 in0.0 mm 0.01 in0.3 mm
10:10 AM 71.1°F21.7°C 57.0°F13.9°C 61% 2.6 mph SW4.2 kmh SW 6.0 mph9.7 kmh 29.80 in1009.1 mb 0.00 in0.0 mm 0.00 in0.0 mm 0.01 in0.3 mm
10:15 AM 71.2°F21.8°C 56.0°F13.3°C 60% 2.7 mph N4.3 kmh N 6.0 mph9.7 kmh 29.80 in1009.1 mb 0.00 in0.0 mm 0.00 in0.0 mm 0.01 in0.3 mm
10:20 AM 70.7°F21.5°C 56.0°F13.3°C 59% 3.2 mph WNW5.1 kmh WNW 11.0 mph17.7 kmh 29.80 in1009.1 mb 0.00 in0.0 mm 0.00 in0.0 mm 0.01 in0.3 mm
10:25 AM 70.7°F21.5°C 56.0°F13.3°C 59% 3.8 mph WSW6.1 kmh WSW 12.0 mph19.3 kmh 29.80 in1009.1 mb 0.00 in0.0 mm 0.00 in0.0 mm 0.01 in0.3 mm
10:30 AM 69.0°F20.6°C 56.0°F13.3°C 63% 5.4 mph N8.7 kmh N 14.0 mph22.5 kmh 29.80 in1009.1 mb 2.10 in53.3 mm 25.20 in640.1 mm 0.03 in0.8 mm
10:35 AM 67.4°F19.7°C 56.0°F13.3°C 67% 5.4 mph N8.7 kmh N 13.0 mph20.9 kmh 29.80 in1009.1 mb 0.09 in2.3 mm 0.00 in0.0 mm 0.04 in1.0 mm
10:40 AM 67.5°F19.7°C 57.0°F13.9°C 68% 3.9 mph N6.3 kmh N 9.0 mph14.5 kmh 29.80 in1009.1 mb 0.05 in1.3 mm 0.00 in0.0 mm 0.04 in1.0 mm
10:45 AM 68.0°F20.0°C 57.0°F13.9°C 68% 3.6 mph N5.8 kmh N 11.0 mph17.7 kmh 29.80 in1009.1 mb 0.03 in0.8 mm 0.00 in0.0 mm 0.05 in1.3 mm
10:50 AM 67.3°F19.6°C 56.0°F13.3°C 67% 3.8 mph NW6.1 kmh NW 11.0 mph17.7 kmh 29.81 in1009.5 mb 0.03 in0.8 mm 0.00 in0.0 mm 0.05 in1.3 mm
10:55 AM 66.7°F19.3°C 56.0°F13.3°C 68% 3.7 mph NNW6.0 kmh NNW 7.0 mph11.3 kmh 29.81 in1009.5 mb 0.03 in0.8 mm 0.00 in0.0 mm 0.05 in1.3 mm
11:00 AM 67.2°F19.6°C 56.0°F13.3°C 68% 3.3 mph NW5.3 kmh NW 8.0 mph12.9 kmh 29.81 in1009.5 mb 0.03 in0.8 mm 0.00 in0.0 mm 0.05 in1.3 mm
11:05 AM 67.4°F19.7°C 56.0°F13.3°C 67% 3.4 mph W5.5 kmh W 12.0 mph19.3 kmh 29.81 in1009.5 mb 0.00 in0.0 mm 0.00 in0.0 mm 0.05 in1.3 mm
11:10 AM 68.8°F20.4°C 58.0°F14.4°C 68% 3.1 mph WNW5.0 kmh WNW 12.0 mph19.3 kmh 29.80 in1009.1 mb 0.00 in0.0 mm 0.00 in0.0 mm 0.05 in1.3 mm
11:15 AM 69.6°F20.9°C 57.0°F13.9°C 64% 3.1 mph WSW5.0 kmh WSW 10.0 mph16.1 kmh 29.80 in1009.1 mb 0.00 in0.0 mm 0.00 in0.0 mm 0.05 in1.3 mm
11:20 AM 70.1°F21.2°C 56.0°F13.3°C 62% 3.4 mph WNW5.5 kmh WNW 10.0 mph16.1 kmh 29.80 in1009.1 mb 0.00 in0.0 mm 0.00 in0.0 mm 0.05 in1.3 mm
11:25 AM 69.3°F20.7°C 56.0°F13.3°C 62% 3.6 mph W5.8 kmh W 8.0 mph12.9 kmh 29.81 in1009.5 mb 0.00 in0.0 mm 0.00 in0.0 mm 0.05 in1.3 mm
11:30 AM 69.0°F20.6°C 56.0°F13.3°C 63% 3.5 mph N5.6 kmh N 9.0 mph14.5 kmh 29.80 in1009.1 mb 0.00 in0.0 mm 0.00 in0.0 mm 0.05 in1.3 mm
11:35 AM 70.2°F21.2°C 56.0°F13.3°C 61% 3.3 mph SSW5.3 kmh SSW 8.0 mph12.9 kmh 29.81 in1009.5 mb 0.00 in0.0 mm 0.00 in0.0 mm 0.05 in1.3 mm
11:40 AM 70.1°F21.2°C 55.0°F12.8°C 60% 4.3 mph N6.9 kmh N 10.0 mph16.1 kmh 29.81 in1009.5 mb 0.00 in0.0 mm 0.00 in0.0 mm 0.05 in1.3 mm
11:45 AM 70.7°F21.5°C 56.0°F13.3°C 60% 4.5 mph WSW7.2 kmh WSW 10.0 mph16.1 kmh 29.80 in1009.1 mb 0.00 in0.0 mm 0.00 in0.0 mm 0.05 in1.3 mm
11:50 AM 71.7°F22.1°C 56.0°F13.3°C 59% 3.5 mph NW5.6 kmh NW 6.0 mph9.7 kmh 29.80 in1009.1 mb 0.00 in0.0 mm 0.00 in0.0 mm 0.05 in1.3 mm
11:55 AM 72.7°F22.6°C 57.0°F13.9°C 58% 3.6 mph SW5.8 kmh SW 10.0 mph16.1 kmh 29.80 in1009.1 mb 0.00 in0.0 mm 0.00 in0.0 mm 0.05 in1.3 mm
12:00 PM 73.0°F22.8°C 57.0°F13.9°C 57% 3.7 mph SW6.0 kmh SW 10.0 mph16.1 kmh 29.81 in1009.5 mb 0.00 in0.0 mm 0.00 in0.0 mm 0.05 in1.3 mm
12:05 PM 73.4°F23.0°C 57.0°F13.9°C 56% 3.4 mph WNW5.5 kmh WNW 10.0 mph16.1 kmh 29.80 in1009.1 mb 0.00 in0.0 mm 0.00 in0.0 mm 0.05 in1.3 mm
12:10 PM 72.9°F22.7°C 56.0°F13.3°C 55% 4.0 mph SW6.4 kmh SW 12.0 mph19.3 kmh 29.80 in1009.1 mb 0.00 in0.0 mm 0.00 in0.0 mm 0.05 in1.3 mm
12:15 PM 72.6°F22.6°C 55.0°F12.8°C 54% 4.8 mph NW7.7 kmh NW 15.0 mph24.1 kmh 29.80 in1009.1 mb 0.00 in0.0 mm 0.00 in0.0 mm 0.05 in1.3 mm
12:20 PM 73.0°F22.8°C 55.0°F12.8°C 54% 5.3 mph WSW8.5 kmh WSW 15.0 mph24.1 kmh 29.80 in1009.1 mb 0.00 in0.0 mm 0.00 in0.0 mm 0.05 in1.3 mm
12:25 PM 73.4°F23.0°C 56.0°F13.3°C 54% 5.1 mph W8.2 kmh W 13.0 mph20.9 kmh 29.79 in1008.8 mb 0.00 in0.0 mm 0.00 in0.0 mm 0.05 in1.3 mm
12:30 PM 72.9°F22.7°C 54.0°F12.2°C 52% 5.3 mph W8.5 kmh W 15.0 mph24.1 kmh 29.80 in1009.1 mb 0.00 in0.0 mm 0.00 in0.0 mm 0.05 in1.3 mm
12:35 PM 72.4°F22.4°C 54.0°F12.2°C 53% 5.3 mph NNW8.5 kmh NNW 15.0 mph24.1 kmh 29.79 in1008.8 mb 0.00 in0.0 mm 0.00 in0.0 mm 0.05 in1.3 mm
12:40 PM 72.7°F22.6°C 54.0°F12.2°C 53% 5.3 mph NW8.5 kmh NW 13.0 mph20.9 kmh 29.79 in1008.8 mb 0.00 in0.0 mm 0.00 in0.0 mm 0.05 in1.3 mm
12:45 PM 72.5°F22.5°C 54.0°F12.2°C 52% 6.2 mph S10.0 kmh S 16.0 mph25.7 kmh 29.79 in1008.8 mb 0.00 in0.0 mm 0.00 in0.0 mm 0.05 in1.3 mm
12:50 PM 72.7°F22.6°C 54.0°F12.2°C 53% 5.9 mph WSW9.5 kmh WSW 13.0 mph20.9 kmh 29.79 in1008.8 mb 0.00 in0.0 mm 0.00 in0.0 mm 0.05 in1.3 mm
12:55 PM 73.2°F22.9°C 55.0°F12.8°C 53% 5.2 mph WSW8.4 kmh WSW 11.0 mph17.7 kmh 29.79 in1008.8 mb 0.00 in0.0 mm 0.00 in0.0 mm 0.05 in1.3 mm
01:00 PM 73.9°F23.3°C 55.0°F12.8°C 51% 5.3 mph W8.5 kmh W 12.0 mph19.3 kmh 29.79 in1008.8 mb 0.00 in0.0 mm 0.00 in0.0 mm 0.05 in1.3 mm
01:05 PM 73.7°F23.2°C 54.0°F12.2°C 51% 5.1 mph WSW8.2 kmh WSW 14.0 mph22.5 kmh 29.79 in1008.8 mb 0.00 in0.0 mm 0.00 in0.0 mm 0.05 in1.3 mm
01:10 PM 72.8°F22.7°C 54.0°F12.2°C 51% 5.8 mph WSW9.3 kmh WSW 14.0 mph22.5 kmh 29.79 in1008.8 mb 0.00 in0.0 mm 0.00 in0.0 mm 0.05 in1.3 mm
01:15 PM 73.7°F23.2°C 54.0°F12.2°C 51% 5.6 mph NNW9.0 kmh NNW 13.0 mph20.9 kmh 29.79 in1008.8 mb 0.00 in0.0 mm 0.00 in0.0 mm 0.05 in1.3 mm
01:20 PM 74.0°F23.3°C 55.0°F12.8°C 51% 5.1 mph W8.2 kmh W 14.0 mph22.5 kmh 29.79 in1008.8 mb 0.00 in0.0 mm 0.00 in0.0 mm 0.05 in1.3 mm
01:25 PM 73.5°F23.1°C 54.0°F12.2°C 51% 4.9 mph SW7.9 kmh SW 14.0 mph22.5 kmh 29.79 in1008.8 mb 0.00 in0.0 mm 0.00 in0.0 mm 0.05 in1.3 mm
01:30 PM 73.0°F22.8°C 54.0°F12.2°C 52% 3.8 mph W6.1 kmh W 8.0 mph12.9 kmh 29.79 in1008.8 mb 0.00 in0.0 mm 0.00 in0.0 mm 0.05 in1.3 mm
01:35 PM 73.4°F23.0°C 54.0°F12.2°C 51% 4.3 mph W6.9 kmh W 13.0 mph20.9 kmh 29.79 in1008.8 mb 0.00 in0.0 mm 0.00 in0.0 mm 0.05 in1.3 mm
01:40 PM 73.7°F23.2°C 53.0°F11.7°C 49% 5.3 mph NNW8.5 kmh NNW 13.0 mph20.9 kmh 29.79 in1008.8 mb 0.00 in0.0 mm 0.00 in0.0 mm 0.05 in1.3 mm
01:45 PM 74.0°F23.3°C 53.0°F11.7°C 48% 6.1 mph NW9.8 kmh NW 17.0 mph27.4 kmh 29.79 in1008.8 mb 0.00 in0.0 mm 0.00 in0.0 mm 0.05 in1.3 mm
01:50 PM 73.4°F23.0°C 53.0°F11.7°C 49% 6.1 mph WNW9.8 kmh WNW 17.0 mph27.4 kmh 29.79 in1008.8 mb 0.00 in0.0 mm 0.00 in0.0 mm 0.05 in1.3 mm
01:55 PM 73.9°F23.3°C 52.0°F11.1°C 46% 5.8 mph NNW9.3 kmh NNW 13.0 mph20.9 kmh 29.79 in1008.8 mb 0.00 in0.0 mm 0.00 in0.0 mm 0.05 in1.3 mm
02:00 PM 73.7°F23.2°C 53.0°F11.7°C 48% 6.0 mph NW9.7 kmh NW 13.0 mph20.9 kmh 29.79 in1008.8 mb 0.00 in0.0 mm 0.00 in0.0 mm 0.05 in1.3 mm
02:05 PM 74.3°F23.5°C 53.0°F11.7°C 48% 6.6 mph NNW10.6 kmh NNW 12.0 mph19.3 kmh 29.79 in1008.8 mb 0.00 in0.0 mm 0.00 in0.0 mm 0.05 in1.3 mm
02:10 PM 73.8°F23.2°C 52.0°F11.1°C 47% 6.5 mph SW10.5 kmh SW 14.0 mph22.5 kmh 29.79 in1008.8 mb 0.00 in0.0 mm 0.00 in0.0 mm 0.05 in1.3 mm
02:15 PM 72.9°F22.7°C 53.0°F11.7°C 50% 6.7 mph W10.8 kmh W 17.0 mph27.4 kmh 29.80 in1009.1 mb 0.00 in0.0 mm 0.00 in0.0 mm 0.05 in1.3 mm
02:20 PM 72.5°F22.5°C 53.0°F11.7°C 51% 7.3 mph WNW11.7 kmh WNW 17.0 mph27.4 kmh 29.80 in1009.1 mb 0.00 in0.0 mm 0.00 in0.0 mm 0.05 in1.3 mm
02:25 PM 72.1°F22.3°C 53.0°F11.7°C 52% 6.1 mph WNW9.8 kmh WNW 14.0 mph22.5 kmh 29.80 in1009.1 mb 0.00 in0.0 mm 0.00 in0.0 mm 0.05 in1.3 mm
02:30 PM 71.4°F21.9°C 53.0°F11.7°C 52% 6.1 mph WSW9.8 kmh WSW 14.0 mph22.5 kmh 29.80 in1009.1 mb 0.00 in0.0 mm 0.00 in0.0 mm 0.05 in1.3 mm
02:35 PM 71.5°F21.9°C 52.0°F11.1°C 51% 6.4 mph NNW10.3 kmh NNW 15.0 mph24.1 kmh 29.80 in1009.1 mb 0.00 in0.0 mm 0.00 in0.0 mm 0.05 in1.3 mm
02:40 PM 71.3°F21.8°C 52.0°F11.1°C 50% 6.4 mph W10.3 kmh W 15.0 mph24.1 kmh 29.81 in1009.5 mb 0.00 in0.0 mm 0.00 in0.0 mm 0.05 in1.3 mm
02:45 PM 71.1°F21.7°C 51.0°F10.6°C 50% 7.2 mph SSE11.6 kmh SSE 15.0 mph24.1 kmh 29.81 in1009.5 mb 0.00 in0.0 mm 0.00 in0.0 mm 0.05 in1.3 mm
02:50 PM 70.8°F21.6°C 52.0°F11.1°C 52% 6.7 mph NW10.8 kmh NW 15.0 mph24.1 kmh 29.81 in1009.5 mb 0.00 in0.0 mm 0.00 in0.0 mm 0.05 in1.3 mm
02:55 PM 70.8°F21.6°C 53.0°F11.7°C 53% 6.1 mph NNW9.8 kmh NNW 14.0 mph22.5 kmh 29.81 in1009.5 mb 0.00 in0.0 mm 0.00 in0.0 mm 0.05 in1.3 mm
03:00 PM 71.2°F21.8°C 53.0°F11.7°C 53% 5.4 mph NW8.7 kmh NW 14.0 mph22.5 kmh 29.81 in1009.5 mb 0.00 in0.0 mm 0.00 in0.0 mm 0.05 in1.3 mm
03:05 PM 70.7°F21.5°C 53.0°F11.7°C 54% 4.8 mph SW7.7 kmh SW 13.0 mph20.9 kmh 29.82 in1009.8 mb 0.00 in0.0 mm 0.00 in0.0 mm 0.05 in1.3 mm
03:10 PM 70.2°F21.2°C 53.0°F11.7°C 54% 4.7 mph W7.6 kmh W 12.0 mph19.3 kmh 29.82 in1009.8 mb 0.00 in0.0 mm 0.00 in0.0 mm 0.05 in1.3 mm
03:15 PM 71.1°F21.7°C 53.0°F11.7°C 54% 4.5 mph NNW7.2 kmh NNW 12.0 mph19.3 kmh 29.81 in1009.5 mb 0.00 in0.0 mm 0.00 in0.0 mm 0.05 in1.3 mm
03:20 PM 71.0°F21.7°C 53.0°F11.7°C 54% 3.8 mph SW6.1 kmh SW 8.0 mph12.9 kmh 29.81 in1009.5 mb 0.00 in0.0 mm 0.00 in0.0 mm 0.05 in1.3 mm
03:25 PM 71.1°F21.7°C 53.0°F11.7°C 53% 3.9 mph WNW6.3 kmh WNW 12.0 mph19.3 kmh 29.81 in1009.5 mb 0.00 in0.0 mm 0.00 in0.0 mm 0.05 in1.3 mm
03:30 PM 70.4°F21.3°C 52.0°F11.1°C 53% 4.7 mph NW7.6 kmh NW 15.0 mph24.1 kmh 29.81 in1009.5 mb 0.00 in0.0 mm 0.00 in0.0 mm 0.05 in1.3 mm
03:35 PM 70.5°F21.4°C 52.0°F11.1°C 52% 4.8 mph NW7.7 kmh NW 15.0 mph24.1 kmh 29.82 in1009.8 mb 0.00 in0.0 mm 0.00 in0.0 mm 0.05 in1.3 mm
03:40 PM 70.6°F21.4°C 52.0°F11.1°C 52% 5.3 mph SW8.5 kmh SW 12.0 mph19.3 kmh 29.82 in1009.8 mb 0.00 in0.0 mm 0.00 in0.0 mm 0.05 in1.3 mm
03:45 PM 70.1°F21.2°C 52.0°F11.1°C 52% 5.7 mph SW9.2 kmh SW 13.0 mph20.9 kmh 29.82 in1009.8 mb 0.00 in0.0 mm 0.00 in0.0 mm 0.05 in1.3 mm
03:50 PM 70.3°F21.3°C 52.0°F11.1°C 52% 5.2 mph WNW8.4 kmh WNW 12.0 mph19.3 kmh 29.82 in1009.8 mb 0.00 in0.0 mm 0.00 in0.0 mm 0.05 in1.3 mm
03:55 PM 70.1°F21.2°C 51.0°F10.6°C 51% 5.1 mph WSW8.2 kmh WSW 13.0 mph20.9 kmh 29.82 in1009.8 mb 0.00 in0.0 mm 0.00 in0.0 mm 0.05 in1.3 mm
04:00 PM 70.8°F21.6°C 51.0°F10.6°C 50% 5.0 mph W8.0 kmh W 11.0 mph17.7 kmh 29.81 in1009.5 mb 0.00 in0.0 mm 0.00 in0.0 mm 0.05 in1.3 mm
04:05 PM 71.0°F21.7°C 49.0°F9.4°C 45% 5.4 mph NW8.7 kmh NW 16.0 mph25.7 kmh 29.81 in1009.5 mb 0.00 in0.0 mm 0.00 in0.0 mm 0.05 in1.3 mm
04:10 PM 71.1°F21.7°C 49.0°F9.4°C 45% 6.0 mph W9.7 kmh W 16.0 mph25.7 kmh 29.81 in1009.5 mb 0.00 in0.0 mm 0.00 in0.0 mm 0.05 in1.3 mm
04:15 PM 71.1°F21.7°C 49.0°F9.4°C 45% 5.6 mph WNW9.0 kmh WNW 11.0 mph17.7 kmh 29.81 in1009.5 mb 0.00 in0.0 mm 0.00 in0.0 mm 0.05 in1.3 mm
04:20 PM 71.2°F21.8°C 47.0°F8.3°C 43% 5.7 mph NW9.2 kmh NW 13.0 mph20.9 kmh 29.82 in1009.8 mb 0.00 in0.0 mm 0.00 in0.0 mm 0.05 in1.3 mm
04:25 PM 71.2°F21.8°C 48.0°F8.9°C 44% 5.8 mph WSW9.3 kmh WSW 13.0 mph20.9 kmh 29.82 in1009.8 mb 0.00 in0.0 mm 0.00 in0.0 mm 0.05 in1.3 mm
04:30 PM 71.0°F21.7°C 47.0°F8.3°C 43% 5.5 mph NW8.9 kmh NW 14.0 mph22.5 kmh 29.82 in1009.8 mb 0.00 in0.0 mm 0.00 in0.0 mm 0.05 in1.3 mm
04:35 PM 70.9°F21.6°C 47.0°F8.3°C 43% 5.2 mph W8.4 kmh W 18.0 mph29.0 kmh 29.82 in1009.8 mb 0.00 in0.0 mm 0.00 in0.0 mm 0.05 in1.3 mm
04:40 PM 70.8°F21.6°C 47.0°F8.3°C 43% 4.8 mph NNW7.7 kmh NNW 18.0 mph29.0 kmh 29.82 in1009.8 mb 0.00 in0.0 mm 0.00 in0.0 mm 0.05 in1.3 mm
04:45 PM 70.5°F21.4°C 47.0°F8.3°C 43% 4.8 mph W7.7 kmh W 14.0 mph22.5 kmh 29.83 in1010.2 mb 0.00 in0.0 mm 0.00 in0.0 mm 0.05 in1.3 mm
04:50 PM 70.2°F21.2°C 47.0°F8.3°C 43% 5.7 mph WSW9.2 kmh WSW 19.0 mph30.6 kmh 29.83 in1010.2 mb 0.00 in0.0 mm 0.00 in0.0 mm 0.05 in1.3 mm
04:55 PM 70.0°F21.1°C 47.0°F8.3°C 44% 5.7 mph NW9.2 kmh NW 19.0 mph30.6 kmh 29.83 in1010.2 mb 0.00 in0.0 mm 0.00 in0.0 mm 0.05 in1.3 mm
05:00 PM 69.8°F21.0°C 47.0°F8.3°C 44% 5.1 mph W8.2 kmh W 14.0 mph22.5 kmh 29.83 in1010.2 mb 0.00 in0.0 mm 0.00 in0.0 mm 0.05 in1.3 mm
05:05 PM 69.7°F20.9°C 47.0°F8.3°C 44% 5.0 mph SW8.0 kmh SW 13.0 mph20.9 kmh 29.83 in1010.2 mb 0.00 in0.0 mm 0.00 in0.0 mm 0.05 in1.3 mm
05:10 PM 69.4°F20.8°C 46.0°F7.8°C 43% 5.3 mph WSW8.5 kmh WSW 13.0 mph20.9 kmh 29.83 in1010.2 mb 0.00 in0.0 mm 0.00 in0.0 mm 0.05 in1.3 mm
05:15 PM 69.1°F20.6°C 46.0°F7.8°C 44% 4.9 mph N7.9 kmh N 13.0 mph20.9 kmh 29.83 in1010.2 mb 0.00 in0.0 mm 0.00 in0.0 mm 0.05 in1.3 mm
05:20 PM 68.5°F20.3°C 46.0°F7.8°C 45% 3.7 mph N6.0 kmh N 10.0 mph16.1 kmh 29.83 in1010.2 mb 0.00 in0.0 mm 0.00 in0.0 mm 0.05 in1.3 mm
05:25 PM 68.2°F20.1°C 46.0°F7.8°C 46% 3.3 mph N5.3 kmh N 9.0 mph14.5 kmh 29.84 in1010.5 mb 0.00 in0.0 mm 0.00 in0.0 mm 0.05 in1.3 mm
05:30 PM 68.1°F20.1°C 46.0°F7.8°C 46% 3.5 mph N5.6 kmh N 8.0 mph12.9 kmh 29.84 in1010.5 mb 0.00 in0.0 mm 0.00 in0.0 mm 0.05 in1.3 mm
05:35 PM 68.0°F20.0°C 46.0°F7.8°C 46% 3.8 mph N6.1 kmh N 9.0 mph14.5 kmh 29.84 in1010.5 mb 0.00 in0.0 mm 0.00 in0.0 mm 0.05 in1.3 mm
05:40 PM 68.0°F20.0°C 46.0°F7.8°C 45% 4.1 mph N6.6 kmh N 11.0 mph17.7 kmh 29.84 in1010.5 mb 0.00 in0.0 mm 0.00 in0.0 mm 0.05 in1.3 mm
05:45 PM 67.8°F19.9°C 46.0°F7.8°C 46% 4.4 mph N7.1 kmh N 11.0 mph17.7 kmh 29.84 in1010.5 mb 0.00 in0.0 mm 0.00 in0.0 mm 0.05 in1.3 mm
05:50 PM 67.6°F19.8°C 46.0°F7.8°C 46% 4.3 mph N6.9 kmh N 12.0 mph19.3 kmh 29.84 in1010.5 mb 0.00 in0.0 mm 0.00 in0.0 mm 0.05 in1.3 mm
05:55 PM 67.5°F19.7°C 46.0°F7.8°C 47% 4.2 mph N6.8 kmh N 12.0 mph19.3 kmh 29.84 in1010.5 mb 0.00 in0.0 mm 0.00 in0.0 mm 0.05 in1.3 mm
06:00 PM 67.3°F19.6°C 46.0°F7.8°C 47% 4.0 mph N6.4 kmh N 9.0 mph14.5 kmh 29.85 in1010.8 mb 0.00 in0.0 mm 0.00 in0.0 mm 0.05 in1.3 mm
06:05 PM 67.1°F19.5°C 47.0°F8.3°C 48% 3.9 mph N6.3 kmh N 9.0 mph14.5 kmh 29.85 in1010.8 mb 0.00 in0.0 mm 0.00 in0.0 mm 0.05 in1.3 mm
06:10 PM 66.9°F19.4°C 47.0°F8.3°C 49% 3.5 mph N5.6 kmh N 8.0 mph12.9 kmh 29.85 in1010.8 mb 0.00 in0.0 mm 0.00 in0.0 mm 0.05 in1.3 mm
06:15 PM 66.7°F19.3°C 47.0°F8.3°C 49% 2.9 mph SSW4.7 kmh SSW 8.0 mph12.9 kmh 29.85 in1010.8 mb 0.00 in0.0 mm 0.00 in0.0 mm 0.05 in1.3 mm
06:20 PM 66.6°F19.2°C 47.0°F8.3°C 49% 3.0 mph W4.8 kmh W 9.0 mph14.5 kmh 29.85 in1010.8 mb 0.00 in0.0 mm 0.00 in0.0 mm 0.05 in1.3 mm
06:25 PM 66.6°F19.2°C 47.0°F8.3°C 50% 3.2 mph N5.1 kmh N 9.0 mph14.5 kmh 29.85 in1010.8 mb 0.00 in0.0 mm 0.00 in0.0 mm 0.05 in1.3 mm
06:30 PM 66.5°F19.2°C 47.0°F8.3°C 50% 3.0 mph N4.8 kmh N 11.0 mph17.7 kmh 29.85 in1010.8 mb 0.00 in0.0 mm 0.00 in0.0 mm 0.05 in1.3 mm
06:35 PM 66.4°F19.1°C 47.0°F8.3°C 50% 2.7 mph N4.3 kmh N 11.0 mph17.7 kmh 29.85 in1010.8 mb 0.00 in0.0 mm 0.00 in0.0 mm 0.05 in1.3 mm
06:40 PM 66.3°F19.1°C 47.0°F8.3°C 51% 3.3 mph N5.3 kmh N 11.0 mph17.7 kmh 29.85 in1010.8 mb 0.00 in0.0 mm 0.00 in0.0 mm 0.05 in1.3 mm
06:45 PM 66.3°F19.1°C 47.0°F8.3°C 51% 3.6 mph N5.8 kmh N 11.0 mph17.7 kmh 29.86 in1011.2 mb 0.00 in0.0 mm 0.00 in0.0 mm 0.05 in1.3 mm
06:50 PM 66.2°F19.0°C 47.0°F8.3°C 51% 3.3 mph N5.3 kmh N 11.0 mph17.7 kmh 29.86 in1011.2 mb 0.00 in0.0 mm 0.00 in0.0 mm 0.05 in1.3 mm
06:55 PM 65.9°F18.8°C 48.0°F8.9°C 52% 2.8 mph N4.5 kmh N 7.0 mph11.3 kmh 29.86 in1011.2 mb 0.00 in0.0 mm 0.00 in0.0 mm 0.05 in1.3 mm
07:00 PM 65.6°F18.7°C 48.0°F8.9°C 53% 2.8 mph WSW4.5 kmh WSW 7.0 mph11.3 kmh 29.86 in1011.2 mb 0.00 in0.0 mm 0.00 in0.0 mm 0.05 in1.3 mm
07:05 PM 65.1°F18.4°C 48.0°F8.9°C 55% 3.0 mph N4.8 kmh N 7.0 mph11.3 kmh 29.86 in1011.2 mb 0.00 in0.0 mm 0.00 in0.0 mm 0.05 in1.3 mm
07:10 PM 64.4°F18.0°C 48.0°F8.9°C 56% 2.7 mph N4.3 kmh N 7.0 mph11.3 kmh 29.86 in1011.2 mb 0.00 in0.0 mm 0.00 in0.0 mm 0.05 in1.3 mm
07:15 PM 64.2°F17.9°C 48.0°F8.9°C 56% 2.8 mph N4.5 kmh N 8.0 mph12.9 kmh 29.86 in1011.2 mb 0.00 in0.0 mm 0.00 in0.0 mm 0.05 in1.3 mm
07:20 PM 64.3°F17.9°C 48.0°F8.9°C 56% 2.8 mph N4.5 kmh N 8.0 mph12.9 kmh 29.86 in1011.2 mb 0.00 in0.0 mm 0.00 in0.0 mm 0.05 in1.3 mm
07:25 PM 64.3°F17.9°C 48.0°F8.9°C 56% 2.4 mph N3.9 kmh N 6.0 mph9.7 kmh 29.86 in1011.2 mb 0.00 in0.0 mm 0.00 in0.0 mm 0.05 in1.3 mm
07:30 PM 64.5°F18.1°C 48.0°F8.9°C 55% 3.0 mph N4.8 kmh N 11.0 mph17.7 kmh 29.86 in1011.2 mb 0.00 in0.0 mm 0.00 in0.0 mm 0.05 in1.3 mm
07:35 PM 64.7°F18.2°C 47.0°F8.3°C 53% 3.8 mph N6.1 kmh N 12.0 mph19.3 kmh 29.86 in1011.2 mb 0.00 in0.0 mm 0.00 in0.0 mm 0.05 in1.3 mm
07:40 PM 64.9°F18.3°C 47.0°F8.3°C 53% 3.8 mph N6.1 kmh N 12.0 mph19.3 kmh 29.86 in1011.2 mb 0.00 in0.0 mm 0.00 in0.0 mm 0.05 in1.3 mm
07:45 PM 64.9°F18.3°C 47.0°F8.3°C 53% 3.3 mph N5.3 kmh N 10.0 mph16.1 kmh 29.86 in1011.2 mb 0.00 in0.0 mm 0.00 in0.0 mm 0.05 in1.3 mm
07:50 PM 64.8°F18.2°C 47.0°F8.3°C 53% 3.1 mph N5.0 kmh N 9.0 mph14.5 kmh 29.87 in1011.5 mb 0.00 in0.0 mm 0.00 in0.0 mm 0.05 in1.3 mm
07:55 PM 64.8°F18.2°C 47.0°F8.3°C 53% 4.0 mph N6.4 kmh N 12.0 mph19.3 kmh 29.87 in1011.5 mb 0.00 in0.0 mm 0.00 in0.0 mm 0.05 in1.3 mm
08:00 PM 64.9°F18.3°C 47.0°F8.3°C 53% 4.3 mph N6.9 kmh N 10.0 mph16.1 kmh 29.87 in1011.5 mb 0.00 in0.0 mm 0.00 in0.0 mm 0.05 in1.3 mm
08:05 PM 64.8°F18.2°C 47.0°F8.3°C 53% 4.4 mph N7.1 kmh N 16.0 mph25.7 kmh 29.87 in1011.5 mb 0.00 in0.0 mm 0.00 in0.0 mm 0.05 in1.3 mm
08:10 PM 64.6°F18.1°C 47.0°F8.3°C 53% 4.3 mph N6.9 kmh N 16.0 mph25.7 kmh 29.87 in1011.5 mb 0.00 in0.0 mm 0.00 in0.0 mm 0.05 in1.3 mm
08:15 PM 64.2°F17.9°C 47.0°F8.3°C 54% 4.0 mph N6.4 kmh N 9.0 mph14.5 kmh 29.87 in1011.5 mb 0.00 in0.0 mm 0.00 in0.0 mm 0.05 in1.3 mm
08:20 PM 63.9°F17.7°C 47.0°F8.3°C 54% 5.0 mph N8.0 kmh N 11.0 mph17.7 kmh 29.87 in1011.5 mb 0.00 in0.0 mm 0.00 in0.0 mm 0.05 in1.3 mm
08:25 PM 63.8°F17.7°C 47.0°F8.3°C 54% 5.5 mph N8.9 kmh N 11.0 mph17.7 kmh 29.88 in1011.9 mb 0.00 in0.0 mm 0.00 in0.0 mm 0.05 in1.3 mm
08:30 PM 63.5°F17.5°C 47.0°F8.3°C 55% 5.0 mph N8.0 kmh N 11.0 mph17.7 kmh 29.88 in1011.9 mb 0.00 in0.0 mm 0.00 in0.0 mm 0.05 in1.3 mm
08:35 PM 63.4°F17.4°C 47.0°F8.3°C 55% 4.9 mph N7.9 kmh N 11.0 mph17.7 kmh 29.88 in1011.9 mb 0.00 in0.0 mm 0.00 in0.0 mm 0.05 in1.3 mm
08:40 PM 63.2°F17.3°C 47.0°F8.3°C 55% 5.1 mph N8.2 kmh N 13.0 mph20.9 kmh 29.88 in1011.9 mb 0.00 in0.0 mm 0.00 in0.0 mm 0.05 in1.3 mm
08:45 PM 63.1°F17.3°C 47.0°F8.3°C 56% 4.8 mph N7.7 kmh N 12.0 mph19.3 kmh 29.88 in1011.9 mb 0.00 in0.0 mm 0.00 in0.0 mm 0.05 in1.3 mm
08:50 PM 63.1°F17.3°C 47.0°F8.3°C 57% 4.0 mph N6.4 kmh N 11.0 mph17.7 kmh 29.88 in1011.9 mb 0.00 in0.0 mm 0.00 in0.0 mm 0.05 in1.3 mm
08:55 PM 63.1°F17.3°C 47.0°F8.3°C 57% 4.0 mph N6.4 kmh N 14.0 mph22.5 kmh 29.88 in1011.9 mb 0.00 in0.0 mm 0.00 in0.0 mm 0.05 in1.3 mm
09:00 PM 63.1°F17.3°C 47.0°F8.3°C 57% 4.1 mph N6.6 kmh N 14.0 mph22.5 kmh 29.88 in1011.9 mb 0.00 in0.0 mm 0.00 in0.0 mm 0.05 in1.3 mm
09:05 PM 63.1°F17.3°C 48.0°F8.9°C 58% 4.3 mph N6.9 kmh N 11.0 mph17.7 kmh 29.88 in1011.9 mb 0.00 in0.0 mm 0.00 in0.0 mm 0.05 in1.3 mm
09:10 PM 63.0°F17.2°C 48.0°F8.9°C 58% 4.5 mph N7.2 kmh N 9.0 mph14.5 kmh 29.88 in1011.9 mb 0.00 in0.0 mm 0.00 in0.0 mm 0.05 in1.3 mm
09:15 PM 62.8°F17.1°C 48.0°F8.9°C 58% 3.7 mph N6.0 kmh N 8.0 mph12.9 kmh 29.88 in1011.9 mb 0.00 in0.0 mm 0.00 in0.0 mm 0.05 in1.3 mm
09:20 PM 62.7°F17.1°C 48.0°F8.9°C 59% 3.8 mph N6.1 kmh N 10.0 mph16.1 kmh 29.88 in1011.9 mb 0.00 in0.0 mm 0.00 in0.0 mm 0.05 in1.3 mm
09:25 PM 62.7°F17.1°C 48.0°F8.9°C 59% 4.1 mph N6.6 kmh N 10.0 mph16.1 kmh 29.88 in1011.9 mb 0.00 in0.0 mm 0.00 in0.0 mm 0.05 in1.3 mm
09:30 PM 62.8°F17.1°C 48.0°F8.9°C 59% 4.6 mph N7.4 kmh N 10.0 mph16.1 kmh 29.88 in1011.9 mb 0.00 in0.0 mm 0.00 in0.0 mm 0.05 in1.3 mm
09:35 PM 62.7°F17.1°C 48.0°F8.9°C 59% 4.6 mph N7.4 kmh N 10.0 mph16.1 kmh 29.88 in1011.9 mb 0.00 in0.0 mm 0.00 in0.0 mm 0.05 in1.3 mm
09:40 PM 62.7°F17.1°C 48.0°F8.9°C 60% 3.9 mph N6.3 kmh N 10.0 mph16.1 kmh 29.88 in1011.9 mb 0.00 in0.0 mm 0.00 in0.0 mm 0.05 in1.3 mm
09:45 PM 62.7°F17.1°C 48.0°F8.9°C 60% 4.7 mph N7.6 kmh N 13.0 mph20.9 kmh 29.88 in1011.9 mb 0.00 in0.0 mm 0.00 in0.0 mm 0.05 in1.3 mm
09:50 PM 62.6°F17.0°C 48.0°F8.9°C 60% 4.8 mph N7.7 kmh N 13.0 mph20.9 kmh 29.88 in1011.9 mb 0.00 in0.0 mm 0.00 in0.0 mm 0.05 in1.3 mm
09:55 PM 62.5°F16.9°C 48.0°F8.9°C 60% 3.9 mph N6.3 kmh N 10.0 mph16.1 kmh 29.89 in1012.2 mb 0.00 in0.0 mm 0.00 in0.0 mm 0.05 in1.3 mm
10:00 PM 62.5°F16.9°C 48.0°F8.9°C 60% 3.9 mph N6.3 kmh N 10.0 mph16.1 kmh 29.88 in1011.9 mb 0.00 in0.0 mm 0.00 in0.0 mm 0.05 in1.3 mm
10:05 PM 62.5°F16.9°C 49.0°F9.4°C 61% 4.2 mph N6.8 kmh N 10.0 mph16.1 kmh 29.89 in1012.2 mb 0.00 in0.0 mm 0.00 in0.0 mm 0.05 in1.3 mm
10:10 PM 62.4°F16.9°C 49.0°F9.4°C 61% 3.8 mph N6.1 kmh N 10.0 mph16.1 kmh 29.89 in1012.2 mb 0.00 in0.0 mm 0.00 in0.0 mm 0.05 in1.3 mm
10:15 PM 62.4°F16.9°C 49.0°F9.4°C 61% 3.9 mph N6.3 kmh N 10.0 mph16.1 kmh 29.89 in1012.2 mb 0.00 in0.0 mm 0.00 in0.0 mm 0.05 in1.3 mm
10:20 PM 62.5°F16.9°C 49.0°F9.4°C 61% 3.9 mph N6.3 kmh N 11.0 mph17.7 kmh 29.89 in1012.2 mb 0.00 in0.0 mm 0.00 in0.0 mm 0.05 in1.3 mm
10:25 PM 62.4°F16.9°C 49.0°F9.4°C 61% 3.8 mph N6.1 kmh N 11.0 mph17.7 kmh 29.89 in1012.2 mb 0.00 in0.0 mm 0.00 in0.0 mm 0.05 in1.3 mm
10:30 PM 62.4°F16.9°C 49.0°F9.4°C 61% 4.1 mph N6.6 kmh N 9.0 mph14.5 kmh 29.89 in1012.2 mb 0.00 in0.0 mm 0.00 in0.0 mm 0.05 in1.3 mm
10:35 PM 62.5°F16.9°C 49.0°F9.4°C 61% 3.8 mph N6.1 kmh N 9.0 mph14.5 kmh 29.89 in1012.2 mb 0.00 in0.0 mm 0.00 in0.0 mm 0.05 in1.3 mm
10:40 PM 62.4°F16.9°C 49.0°F9.4°C 61% 3.4 mph N5.5 kmh N 9.0 mph14.5 kmh 29.89 in1012.2 mb 0.00 in0.0 mm 0.00 in0.0 mm 0.05 in1.3 mm
10:45 PM 62.4°F16.9°C 49.0°F9.4°C 61% 3.5 mph N5.6 kmh N 8.0 mph12.9 kmh 29.89 in1012.2 mb 0.00 in0.0 mm 0.00 in0.0 mm 0.05 in1.3 mm
10:50 PM 62.4°F16.9°C 49.0°F9.4°C 61% 3.7 mph N6.0 kmh N 8.0 mph12.9 kmh 29.89 in1012.2 mb 0.00 in0.0 mm 0.00 in0.0 mm 0.05 in1.3 mm
10:55 PM 62.3°F16.8°C 48.0°F8.9°C 61% 3.6 mph N5.8 kmh N 8.0 mph12.9 kmh 29.89 in1012.2 mb 0.00 in0.0 mm 0.00 in0.0 mm 0.05 in1.3 mm
11:00 PM 62.3°F16.8°C 48.0°F8.9°C 61% 3.7 mph N6.0 kmh N 9.0 mph14.5 kmh 29.89 in1012.2 mb 0.00 in0.0 mm 0.00 in0.0 mm 2.10 in53.3 mm
11:05 PM 62.3°F16.8°C 48.0°F8.9°C 61% 3.6 mph N5.8 kmh N 9.0 mph14.5 kmh 29.89 in1012.2 mb 0.00 in0.0 mm 0.00 in0.0 mm 2.10 in53.3 mm
11:10 PM 62.3°F16.8°C 48.0°F8.9°C 61% 4.0 mph N6.4 kmh N 12.0 mph19.3 kmh 29.89 in1012.2 mb 0.00 in0.0 mm 0.00 in0.0 mm 2.10 in53.3 mm
11:15 PM 62.3°F16.8°C 48.0°F8.9°C 61% 4.3 mph N6.9 kmh N 12.0 mph19.3 kmh 29.89 in1012.2 mb 0.00 in0.0 mm 0.00 in0.0 mm 2.10 in53.3 mm
11:20 PM 62.2°F16.8°C 49.0°F9.4°C 62% 4.3 mph N6.9 kmh N 10.0 mph16.1 kmh 29.89 in1012.2 mb 0.00 in0.0 mm 0.00 in0.0 mm 2.10 in53.3 mm
11:25 PM 62.0°F16.7°C 49.0°F9.4°C 62% 4.0 mph N6.4 kmh N 10.0 mph16.1 kmh 29.89 in1012.2 mb 0.00 in0.0 mm 0.00 in0.0 mm 2.10 in53.3 mm
11:30 PM 61.9°F16.6°C 49.0°F9.4°C 62% 3.3 mph N5.3 kmh N 8.0 mph12.9 kmh 29.89 in1012.2 mb 0.00 in0.0 mm 0.00 in0.0 mm 2.10 in53.3 mm
11:35 PM 61.7°F16.5°C 48.0°F8.9°C 62% 3.7 mph N6.0 kmh N 13.0 mph20.9 kmh 29.89 in1012.2 mb 0.00 in0.0 mm 0.00 in0.0 mm 2.10 in53.3 mm
11:40 PM 61.4°F16.3°C 49.0°F9.4°C 63% 3.7 mph N6.0 kmh N 11.0 mph17.7 kmh 29.89 in1012.2 mb 0.00 in0.0 mm 0.00 in0.0 mm 2.10 in53.3 mm
11:45 PM 61.2°F16.2°C 48.0°F8.9°C 63% 3.1 mph N5.0 kmh N 11.0 mph17.7 kmh 29.89 in1012.2 mb 0.00 in0.0 mm 0.00 in0.0 mm 2.10 in53.3 mm
11:50 PM 60.8°F16.0°C 48.0°F8.9°C 64% 2.8 mph N4.5 kmh N 8.0 mph12.9 kmh 29.89 in1012.2 mb 0.00 in0.0 mm 0.00 in0.0 mm 2.10 in53.3 mm
11:55 PM 60.5°F15.8°C 48.0°F8.9°C 64% 2.6 mph N4.2 kmh N 6.0 mph9.7 kmh 29.89 in1012.2 mb 0.00 in0.0 mm 0.00 in0.0 mm 2.10 in53.3 mm